Hauptseite
METAR-TAF:

METAR-TAF

Flughäfen :

Flughafen Braunschweig-Wolfsburg

Braunschweig, Deutschland

Breite: 52-18N, Länge: 010-27E, Höhe: 81 m

Beobachtung

Neuester Wetterbericht von vor 5 Stunden und 26 Minuten, um 20:50 UTC
Wind 6 kt aus West
Temperatur 9°C
Luftfeuchtigkeit 71%
Luftdruck 1033 hPa
Sichtweite 10 km oder mehr
Durchbrochene Bewölkung in der Höhe von 3600 ft

METAR: EDVE 202050Z 27006KT 9999 BKN036 09/04 Q1033

Zeit: 03:16 (02:16 UTC)

Prognose

Neuester Wetterbericht von vor 9 Stunden und 16 Minuten, um 17:00 UTC
Gültige Prognose vom 20 um 18 UTC bis 20 um 21 UTC
Wind 6 kt aus West/Südwest
Sichtweite 10 km oder mehr
Geschlossene Wolkendecke in der Höhe von 3000 ft

TAF: EDVE 201700Z 2018/2021 25006KT 9999 OVC030

Wetterbeobachtungen und Prognosen von mehr als 4000 Flughäfen (METAR und TAF Bericht).

Die verfügbaren Stationen werden durch gelbe und rote Markierungen auf der Karte dargestellt.

Führen Sie die Maus auf sie, um den Namen der Station zu sehen.

Darauf klicken, um die Beobachtung von Wetterbeobachtungen und Prognosen zu sehen.

Um die Karte zu ändern : klicken Sie auf den grünen Tasten mit einem schwarzen Kreuz Zum Vergrößern, auf den grünen Button mit einem Gedankenstrich zu verkleinern, oder auf die grünen Pfeile für benachbarte Karten.


METAR-TAF: